Time,TemperatureF,DewpointF,PressureIn,WindDirection,WindDirectionDegrees,WindSpeedMPH,WindSpeedGustMPH,Humidity,HourlyPrecipIn,Conditions,Clouds,dailyrainin,SoftwareType,DateUTC
2013-04-19 00:01:00,26.0,13.0,-100.00,ENE,70,2.0,2.0,57,-99.99,,,-99.99,,2013-04-19 06:01:00,
2013-04-19 00:11:00,27.0,14.0,-100.00,ENE,78,0.0,1.0,57,-99.99,,,-99.99,,2013-04-19 06:11:00,
2013-04-19 00:22:00,25.0,13.0,-100.00,ENE,72,3.0,3.0,58,-99.99,,,-99.99,,2013-04-19 06:22:00,
2013-04-19 00:32:00,25.0,13.0,-100.00,ENE,72,3.0,3.0,58,-99.99,,,-99.99,,2013-04-19 06:32:00,
2013-04-19 00:42:00,26.0,13.0,-100.00,ENE,72,0.0,1.0,57,-99.99,,,-99.99,,2013-04-19 06:42:00,
2013-04-19 00:52:00,24.0,13.0,-100.00,ENE,74,2.0,3.0,62,-99.99,,,-99.99,,2013-04-19 06:52:00,
2013-04-19 01:01:00,24.0,13.0,-100.00,ENE,74,2.0,3.0,62,-99.99,,,-99.99,,2013-04-19 07:01:00,
2013-04-19 01:12:00,25.0,14.0,-100.00,North,0,0.0,1.0,61,-99.99,,,-99.99,,2013-04-19 07:12:00,
2013-04-19 01:21:00,25.0,13.0,-100.00,East,79,0.0,1.0,61,-99.99,,,-99.99,,2013-04-19 07:21:00,
2013-04-19 01:31:00,25.0,13.0,-100.00,East,79,0.0,1.0,61,-99.99,,,-99.99,,2013-04-19 07:31:00,
2013-04-19 01:42:00,25.0,13.0,-100.00,East,79,0.0,1.0,61,-99.99,,,-99.99,,2013-04-19 07:42:00,
2013-04-19 01:52:00,23.0,14.0,-100.00,East,101,1.0,3.0,68,-99.99,,,-99.99,,2013-04-19 07:52:00,
2013-04-19 02:02:00,23.0,14.0,-100.00,East,101,1.0,3.0,68,-99.99,,,-99.99,,2013-04-19 08:02:00,
2013-04-19 02:12:00,23.0,14.0,-100.00,ESE,120,0.0,3.0,66,-99.99,,,-99.99,,2013-04-19 08:12:00,
2013-04-19 02:21:00,23.0,14.0,-100.00,ESE,120,0.0,2.0,68,-99.99,,,-99.99,,2013-04-19 08:21:00,
2013-04-19 02:32:00,23.0,14.0,-100.00,ESE,120,0.0,2.0,68,-99.99,,,-99.99,,2013-04-19 08:32:00,
2013-04-19 02:42:00,21.0,13.0,-100.00,East,88,3.0,4.0,71,-99.99,,,-99.99,,2013-04-19 08:42:00,
2013-04-19 02:51:00,22.0,14.0,-100.00,East,91,0.0,2.0,71,-99.99,,,-99.99,,2013-04-19 08:51:00,
2013-04-19 03:01:00,22.0,14.0,-100.00,East,91,0.0,2.0,71,-99.99,,,-99.99,,2013-04-19 09:01:00,
2013-04-19 03:11:00,21.0,14.0,-100.00,East,86,0.0,2.0,73,-99.99,,,-99.99,,2013-04-19 09:11:00,
2013-04-19 03:21:00,21.0,13.0,-100.00,NNE,22,3.0,4.0,72,-99.99,,,-99.99,,2013-04-19 09:21:00,
2013-04-19 03:32:00,21.0,13.0,-100.00,NNE,22,3.0,4.0,72,-99.99,,,-99.99,,2013-04-19 09:32:00,
2013-04-19 03:42:00,22.0,14.0,-100.00,NNE,22,2.0,2.0,70,-99.99,,,-99.99,,2013-04-19 09:42:00,
2013-04-19 03:52:00,20.0,13.0,-100.00,NNE,24,2.0,3.0,72,-99.99,,,-99.99,,2013-04-19 09:52:00,
2013-04-19 04:02:00,20.0,13.0,-100.00,NNE,24,2.0,3.0,72,-99.99,,,-99.99,,2013-04-19 10:02:00,
2013-04-19 04:13:00,20.0,12.0,-100.00,NE,48,4.0,4.0,72,-99.99,,,-99.99,,2013-04-19 10:13:00,
2013-04-19 04:23:00,20.0,13.0,-100.00,ENE,57,1.0,3.0,75,-99.99,,,-99.99,,2013-04-19 10:23:00,
2013-04-19 04:33:00,20.0,13.0,-100.00,ENE,57,1.0,3.0,75,-99.99,,,-99.99,,2013-04-19 10:33:00,
2013-04-19 04:42:00,21.0,14.0,-100.00,ESE,114,4.0,6.0,74,-99.99,,,-99.99,,2013-04-19 10:42:00,
2013-04-19 04:52:00,20.0,14.0,-100.00,ESE,105,3.0,5.0,74,-99.99,,,-99.99,,2013-04-19 10:52:00,
2013-04-19 05:02:00,20.0,14.0,-100.00,ESE,105,3.0,5.0,74,-99.99,,,-99.99,,2013-04-19 11:02:00,
2013-04-19 05:11:00,21.0,14.0,-100.00,ESE,122,4.0,5.0,73,-99.99,,,-99.99,,2013-04-19 11:11:00,
2013-04-19 05:21:00,19.0,12.0,-100.00,ENE,75,3.0,4.0,73,-99.99,,,-99.99,,2013-04-19 11:21:00,
2013-04-19 05:32:00,19.0,12.0,-100.00,ENE,75,3.0,4.0,73,-99.99,,,-99.99,,2013-04-19 11:32:00,
2013-04-19 05:42:00,19.0,13.0,-100.00,NE,56,3.0,5.0,75,-99.99,,,-99.99,,2013-04-19 11:42:00,
2013-04-19 05:52:00,19.0,13.0,-100.00,ENE,57,3.0,4.0,76,-99.99,,,-99.99,,2013-04-19 11:52:00,
2013-04-19 06:02:00,19.0,13.0,-100.00,ENE,57,3.0,4.0,76,-99.99,,,-99.99,,2013-04-19 12:02:00,
2013-04-19 06:12:00,20.0,14.0,-100.00,ENE,78,2.0,6.0,74,-99.99,,,-99.99,,2013-04-19 12:12:00,
2013-04-19 06:22:00,21.0,15.0,-100.00,SE,134,3.0,4.0,76,-99.99,,,-99.99,,2013-04-19 12:22:00,
2013-04-19 06:32:00,21.0,15.0,-100.00,SE,134,3.0,4.0,76,-99.99,,,-99.99,,2013-04-19 12:32:00,
2013-04-19 06:42:00,22.0,14.0,-100.00,East,90,5.0,5.0,71,-99.99,,,-99.99,,2013-04-19 12:42:00,
2013-04-19 06:52:00,21.0,14.0,-100.00,SE,133,3.0,5.0,73,-99.99,,,-99.99,,2013-04-19 12:52:00,
2013-04-19 07:01:00,21.0,14.0,-100.00,SE,133,3.0,5.0,73,-99.99,,,-99.99,,2013-04-19 13:01:00,
2013-04-19 07:11:00,23.0,14.0,-100.00,ESE,119,4.0,5.0,68,-99.99,,,-99.99,,2013-04-19 13:11:00,
2013-04-19 07:21:00,23.0,14.0,-100.00,ESE,104,5.0,5.0,67,-99.99,,,-99.99,,2013-04-19 13:21:00,
2013-04-19 07:32:00,23.0,14.0,-100.00,ESE,104,5.0,5.0,67,-99.99,,,-99.99,,2013-04-19 13:32:00,
2013-04-19 07:42:00,24.0,14.0,-100.00,SE,142,1.0,5.0,64,-99.99,,,-99.99,,2013-04-19 13:42:00,
2013-04-19 07:52:00,25.0,14.0,-100.00,SE,140,3.0,5.0,63,-99.99,,,-99.99,,2013-04-19 13:52:00,
2013-04-19 08:01:00,25.0,14.0,-100.00,SE,140,3.0,5.0,63,-99.99,,,-99.99,,2013-04-19 14:01:00,
2013-04-19 08:11:00,25.0,14.0,-100.00,East,96,4.0,4.0,63,-99.99,,,-99.99,,2013-04-19 14:11:00,
2013-04-19 08:21:00,24.0,16.0,-100.00,ENE,74,3.0,4.0,69,-99.99,,,-99.99,,2013-04-19 14:21:00,
2013-04-19 08:32:00,24.0,16.0,-100.00,ENE,74,3.0,4.0,69,-99.99,,,-99.99,,2013-04-19 14:32:00,
2013-04-19 08:42:00,26.0,16.0,-100.00,ESE,108,3.0,5.0,65,-99.99,,,-99.99,,2013-04-19 14:42:00,
2013-04-19 08:52:00,26.0,16.0,-100.00,ESE,115,4.0,5.0,65,-99.99,,,-99.99,,2013-04-19 14:52:00,
2013-04-19 09:01:00,26.0,16.0,-100.00,ESE,115,4.0,5.0,65,-99.99,,,-99.99,,2013-04-19 15:01:00,
2013-04-19 09:11:00,28.0,16.0,-100.00,SE,144,2.0,3.0,60,-99.99,,,-99.99,,2013-04-19 15:11:00,
2013-04-19 09:21:00,29.0,16.0,-100.00,North,0,0.0,3.0,58,-99.99,,,-99.99,,2013-04-19 15:21:00,
2013-04-19 09:33:00,29.0,16.0,-100.00,North,0,0.0,3.0,58,-99.99,,,-99.99,,2013-04-19 15:33:00,
2013-04-19 09:43:00,30.0,16.0,-100.00,SW,224,0.0,2.0,56,-99.99,,,-99.99,,2013-04-19 15:43:00,
2013-04-19 09:52:00,31.0,16.0,-100.00,North,0,0.0,1.0,54,-99.99,,,-99.99,,2013-04-19 15:52:00,
2013-04-19 10:03:00,31.0,16.0,-100.00,North,0,0.0,1.0,54,-99.99,,,-99.99,,2013-04-19 16:03:00,
2013-04-19 10:12:00,30.0,18.0,-100.00,East,84,5.0,5.0,60,-99.99,,,-99.99,,2013-04-19 16:12:00,
2013-04-19 10:23:00,30.0,17.0,-100.00,East,93,3.0,5.0,56,-99.99,,,-99.99,,2013-04-19 16:23:00,
2013-04-19 10:32:00,30.0,17.0,-100.00,East,93,3.0,5.0,56,-99.99,,,-99.99,,2013-04-19 16:32:00,
2013-04-19 10:42:00,32.0,14.0,-100.00,ESE,117,5.0,6.0,45,-99.99,,,-99.99,,2013-04-19 16:42:00,
2013-04-19 10:52:00,33.0,15.0,-100.00,East,98,4.0,5.0,46,-99.99,,,-99.99,,2013-04-19 16:52:00,
2013-04-19 11:02:00,33.0,15.0,-100.00,East,98,4.0,5.0,46,-99.99,,,-99.99,,2013-04-19 17:02:00,
2013-04-19 11:11:00,34.0,15.0,-100.00,East,95,1.0,4.0,44,-99.99,,,-99.99,,2013-04-19 17:11:00,
2013-04-19 11:21:00,38.0,17.0,-100.00,NE,44,1.0,4.0,42,-99.99,,,-99.99,,2013-04-19 17:21:00,
2013-04-19 11:32:00,38.0,17.0,-100.00,NE,44,1.0,4.0,42,-99.99,,,-99.99,,2013-04-19 17:32:00,
2013-04-19 11:42:00,40.0,20.0,-100.00,West,276,15.0,21.0,43,-99.99,,,-99.99,,2013-04-19 17:42:00,
2013-04-19 11:52:00,41.0,22.0,-100.00,West,271,17.0,26.0,46,-99.99,,,-99.99,,2013-04-19 17:52:00,
2013-04-19 12:01:00,41.0,22.0,-100.00,West,271,17.0,26.0,46,-99.99,,,-99.99,,2013-04-19 18:01:00,
2013-04-19 12:13:00,40.0,23.0,-100.00,SW,218,9.0,20.0,49,-99.99,,,-99.99,,2013-04-19 18:13:00,
2013-04-19 12:22:00,40.0,23.0,-100.00,SW,214,10.0,19.0,49,-99.99,,,-99.99,,2013-04-19 18:22:00,
2013-04-19 12:33:00,40.0,23.0,-100.00,SW,214,10.0,19.0,49,-99.99,,,-99.99,,2013-04-19 18:33:00,
2013-04-19 12:42:00,40.0,25.0,-100.00,WSW,254,9.0,16.0,56,-99.99,,,-99.99,,2013-04-19 18:42:00,
2013-04-19 12:52:00,40.0,25.0,-100.00,WSW,241,8.0,20.0,53,-99.99,,,-99.99,,2013-04-19 18:52:00,
2013-04-19 13:01:00,40.0,25.0,-100.00,WSW,241,8.0,20.0,53,-99.99,,,-99.99,,2013-04-19 19:01:00,
2013-04-19 13:11:00,40.0,25.0,-100.00,WSW,249,14.0,20.0,54,-99.99,,,-99.99,,2013-04-19 19:11:00,
2013-04-19 13:21:00,40.0,24.0,-100.00,WSW,258,14.0,23.0,52,-99.99,,,-99.99,,2013-04-19 19:21:00,
2013-04-19 13:32:00,40.0,24.0,-100.00,WSW,258,14.0,23.0,52,-99.99,,,-99.99,,2013-04-19 19:32:00,
2013-04-19 13:41:00,40.0,24.0,-100.00,WSW,241,14.0,20.0,53,-99.99,,,-99.99,,2013-04-19 19:41:00,
2013-04-19 13:52:00,40.0,25.0,-100.00,West,268,14.0,15.0,56,-99.99,,,-99.99,,2013-04-19 19:52:00,
2013-04-19 14:01:00,40.0,25.0,-100.00,West,268,14.0,15.0,56,-99.99,,,-99.99,,2013-04-19 20:01:00,
2013-04-19 14:11:00,40.0,25.0,-100.00,West,281,18.0,22.0,55,-99.99,,,-99.99,,2013-04-19 20:11:00,
2013-04-19 14:22:00,41.0,25.0,-100.00,West,279,18.0,24.0,53,-99.99,,,-99.99,,2013-04-19 20:22:00,
2013-04-19 14:32:00,41.0,25.0,-100.00,West,279,18.0,24.0,53,-99.99,,,-99.99,,2013-04-19 20:32:00,
2013-04-19 14:41:00,42.0,25.0,-100.00,West,274,17.0,25.0,50,-99.99,,,-99.99,,2013-04-19 20:41:00,
2013-04-19 14:51:00,42.0,25.0,-100.00,West,277,16.0,23.0,49,-99.99,,,-99.99,,2013-04-19 20:51:00,
2013-04-19 15:01:00,42.0,25.0,-100.00,West,277,16.0,23.0,49,-99.99,,,-99.99,,2013-04-19 21:01:00,
2013-04-19 15:11:00,43.0,24.0,-100.00,WNW,287,14.0,20.0,47,-99.99,,,-99.99,,2013-04-19 21:11:00,
2013-04-19 15:21:00,43.0,24.0,-100.00,West,281,19.0,23.0,47,-99.99,,,-99.99,,2013-04-19 21:21:00,
2013-04-19 15:32:00,43.0,24.0,-100.00,West,281,19.0,23.0,47,-99.99,,,-99.99,,2013-04-19 21:32:00,
2013-04-19 15:42:00,43.0,24.0,-100.00,West,281,19.0,23.0,47,-99.99,,,-99.99,,2013-04-19 21:42:00,
2013-04-19 15:52:00,43.0,26.0,-100.00,WNW,290,14.0,23.0,51,-99.99,,,-99.99,,2013-04-19 21:52:00,
2013-04-19 16:02:00,43.0,26.0,-100.00,WNW,290,14.0,23.0,51,-99.99,,,-99.99,,2013-04-19 22:02:00,
2013-04-19 16:12:00,42.0,28.0,-100.00,WNW,290,18.0,26.0,57,-99.99,,,-99.99,,2013-04-19 22:12:00,
2013-04-19 16:22:00,42.0,29.0,-100.00,WNW,283,17.0,22.0,59,-99.99,,,-99.99,,2013-04-19 22:22:00,
2013-04-19 16:33:00,42.0,29.0,-100.00,WNW,283,17.0,22.0,59,-99.99,,,-99.99,,2013-04-19 22:33:00,
2013-04-19 16:42:00,41.0,29.0,-100.00,WNW,292,16.0,19.0,63,-99.99,,,-99.99,,2013-04-19 22:42:00,
2013-04-19 16:52:00,42.0,30.0,-100.00,WNW,291,14.0,20.0,61,-99.99,,,-99.99,,2013-04-19 22:52:00,
2013-04-19 17:02:00,42.0,30.0,-100.00,WNW,291,14.0,20.0,61,-99.99,,,-99.99,,2013-04-19 23:02:00,
2013-04-19 17:11:00,44.0,28.0,-100.00,West,264,14.0,19.0,53,-99.99,,,-99.99,,2013-04-19 23:11:00,
2013-04-19 17:22:00,43.0,28.0,-100.00,WSW,247,14.0,22.0,55,-99.99,,,-99.99,,2013-04-19 23:22:00,
2013-04-19 17:32:00,43.0,28.0,-100.00,WSW,247,14.0,22.0,55,-99.99,,,-99.99,,2013-04-19 23:32:00,
2013-04-19 17:42:00,42.0,30.0,-100.00,SW,229,10.0,16.0,60,-99.99,,,-99.99,,2013-04-19 23:42:00,
2013-04-19 17:52:00,42.0,29.0,-100.00,NW,313,5.0,10.0,59,-99.99,,,-99.99,,2013-04-19 23:52:00,
2013-04-19 18:01:00,42.0,29.0,-100.00,NW,313,5.0,10.0,59,-99.99,,,-99.99,,2013-04-20 00:01:00,
2013-04-19 18:11:00,43.0,29.0,-100.00,NW,319,4.0,9.0,56,-99.99,,,-99.99,,2013-04-20 00:11:00,
2013-04-19 18:21:00,42.0,28.0,-100.00,WNW,282,4.0,7.0,56,-99.99,,,-99.99,,2013-04-20 00:21:00,
2013-04-19 18:32:00,42.0,28.0,-100.00,WNW,282,4.0,7.0,56,-99.99,,,-99.99,,2013-04-20 00:32:00,
2013-04-19 18:41:00,42.0,28.0,-100.00,WNW,282,4.0,7.0,56,-99.99,,,-99.99,,2013-04-20 00:41:00,
2013-04-19 18:51:00,43.0,27.0,-100.00,NW,307,5.0,8.0,54,-99.99,,,-99.99,,2013-04-20 00:51:00,
2013-04-19 19:01:00,43.0,27.0,-100.00,NW,307,5.0,8.0,54,-99.99,,,-99.99,,2013-04-20 01:01:00,
2013-04-19 19:11:00,43.0,27.0,-100.00,West,274,2.0,4.0,51,-99.99,,,-99.99,,2013-04-20 01:11:00,
2013-04-19 19:21:00,44.0,28.0,-100.00,NW,322,2.0,4.0,52,-99.99,,,-99.99,,2013-04-20 01:21:00,
2013-04-19 19:32:00,44.0,28.0,-100.00,NW,322,2.0,4.0,52,-99.99,,,-99.99,,2013-04-20 01:32:00,
2013-04-19 19:42:00,44.0,27.0,-100.00,NNE,27,0.0,5.0,51,-99.99,,,-99.99,,2013-04-20 01:42:00,
2013-04-19 19:52:00,44.0,26.0,-100.00,NNW,339,1.0,4.0,50,-99.99,,,-99.99,,2013-04-20 01:52:00,
2013-04-19 20:01:00,44.0,26.0,-100.00,ENE,72,4.0,6.0,49,-99.99,,,-99.99,,2013-04-20 02:01:00,
2013-04-19 20:11:00,44.0,26.0,-100.00,ENE,72,4.0,6.0,49,-99.99,,,-99.99,,2013-04-20 02:11:00,
2013-04-19 20:21:00,43.0,27.0,-100.00,East,100,3.0,8.0,54,-99.99,,,-99.99,,2013-04-20 02:21:00,
2013-04-19 20:32:00,43.0,27.0,-100.00,East,100,3.0,8.0,54,-99.99,,,-99.99,,2013-04-20 02:32:00,
2013-04-19 20:42:00,43.0,27.0,-100.00,South,183,3.0,5.0,52,-99.99,,,-99.99,,2013-04-20 02:42:00,
2013-04-19 20:52:00,43.0,27.0,-100.00,South,183,3.0,5.0,52,-99.99,,,-99.99,,2013-04-20 02:52:00,
2013-04-19 21:01:00,43.0,27.0,-100.00,South,183,3.0,5.0,52,-99.99,,,-99.99,,2013-04-20 03:01:00,
2013-04-19 21:11:00,42.0,28.0,-100.00,SSW,205,6.0,13.0,58,-99.99,,,-99.99,,2013-04-20 03:11:00,
2013-04-19 21:21:00,42.0,28.0,-100.00,SW,216,4.0,11.0,58,-99.99,,,-99.99,,2013-04-20 03:21:00,
2013-04-19 21:33:00,42.0,28.0,-100.00,SW,216,4.0,11.0,58,-99.99,,,-99.99,,2013-04-20 03:33:00,
2013-04-19 21:43:00,40.0,30.0,-100.00,West,268,7.0,11.0,66,-99.99,,,-99.99,,2013-04-20 03:43:00,
2013-04-19 21:52:00,40.0,30.0,-100.00,West,276,7.0,10.0,69,-99.99,,,-99.99,,2013-04-20 03:52:00,
2013-04-19 22:03:00,40.0,30.0,-100.00,West,276,7.0,10.0,69,-99.99,,,-99.99,,2013-04-20 04:03:00,
2013-04-19 22:12:00,39.0,31.0,-100.00,South,189,2.0,6.0,72,-99.99,,,-99.99,,2013-04-20 04:12:00,
2013-04-19 22:23:00,39.0,31.0,-100.00,West,275,1.0,2.0,73,-99.99,,,-99.99,,2013-04-20 04:23:00,
2013-04-19 22:32:00,39.0,31.0,-100.00,West,275,1.0,2.0,73,-99.99,,,-99.99,,2013-04-20 04:32:00,
2013-04-19 22:42:00,38.0,31.0,-100.00,WNW,303,0.0,3.0,74,-99.99,,,-99.99,,2013-04-20 04:42:00,
2013-04-19 22:52:00,38.0,31.0,-100.00,NNW,344,0.0,1.0,75,-99.99,,,-99.99,,2013-04-20 04:52:00,
2013-04-19 23:02:00,38.0,31.0,-100.00,NNW,344,0.0,1.0,75,-99.99,,,-99.99,,2013-04-20 05:02:00,
2013-04-19 23:12:00,37.0,31.0,-100.00,NW,316,4.0,5.0,80,-99.99,,,-99.99,,2013-04-20 05:12:00,
2013-04-19 23:21:00,36.0,32.0,-100.00,NW,304,5.0,6.0,82,-99.99,,,-99.99,,2013-04-20 05:21:00,
2013-04-19 23:32:00,36.0,32.0,-100.00,NW,304,5.0,6.0,82,-99.99,,,-99.99,,2013-04-20 05:32:00,
2013-04-19 23:42:00,36.0,32.0,-100.00,WSW,256,4.0,5.0,85,-99.99,,,-99.99,,2013-04-20 05:42:00,
2013-04-19 23:51:00,35.0,31.0,-100.00,West,266,3.0,5.0,86,-99.99,,,-99.99,,2013-04-20 05:51:00,